sensor_id;sensor_type;location;lat;lon;timestamp;temperature;humidity
16881;DHT22;8557;52.068;5.198;2022-11-12T00:01:05;5.90;99.90
16881;DHT22;8557;52.068;5.198;2022-11-12T00:03:33;5.80;99.90
16881;DHT22;8557;52.068;5.198;2022-11-12T00:06:00;5.90;99.90
16881;DHT22;8557;52.068;5.198;2022-11-12T00:08:27;5.80;99.90
16881;DHT22;8557;52.068;5.198;2022-11-12T00:10:54;5.80;99.90
16881;DHT22;8557;52.068;5.198;2022-11-12T00:13:21;5.80;99.90
16881;DHT22;8557;52.068;5.198;2022-11-12T00:15:47;5.80;99.90
16881;DHT22;8557;52.068;5.198;2022-11-12T00:18:14;5.80;99.90
16881;DHT22;8557;52.068;5.198;2022-11-12T00:20:43;5.70;99.90
16881;DHT22;8557;52.068;5.198;2022-11-12T00:23:10;5.70;99.90
16881;DHT22;8557;52.068;5.198;2022-11-12T00:25:36;5.70;99.90
16881;DHT22;8557;52.068;5.198;2022-11-12T00:28:05;5.70;99.90
16881;DHT22;8557;52.068;5.198;2022-11-12T00:30:33;5.70;99.90
16881;DHT22;8557;52.068;5.198;2022-11-12T00:33:01;5.70;99.90
16881;DHT22;8557;52.068;5.198;2022-11-12T00:35:29;5.70;99.90
16881;DHT22;8557;52.068;5.198;2022-11-12T00:37:58;5.70;99.90
16881;DHT22;8557;52.068;5.198;2022-11-12T00:40:25;5.70;99.90
16881;DHT22;8557;52.068;5.198;2022-11-12T00:42:52;5.70;99.90
16881;DHT22;8557;52.068;5.198;2022-11-12T00:45:19;5.70;99.90
16881;DHT22;8557;52.068;5.198;2022-11-12T00:47:46;5.70;99.90
16881;DHT22;8557;52.068;5.198;2022-11-12T00:50:13;5.60;99.90
16881;DHT22;8557;52.068;5.198;2022-11-12T00:52:41;5.60;99.90
16881;DHT22;8557;52.068;5.198;2022-11-12T00:55:09;5.70;99.90
16881;DHT22;8557;52.068;5.198;2022-11-12T00:57:36;5.70;99.90
16881;DHT22;8557;52.068;5.198;2022-11-12T01:00:04;5.60;99.90
16881;DHT22;8557;52.068;5.198;2022-11-12T01:02:31;5.60;99.90
16881;DHT22;8557;52.068;5.198;2022-11-12T01:04:58;5.60;99.90
16881;DHT22;8557;52.068;5.198;2022-11-12T01:07:26;5.60;99.90
16881;DHT22;8557;52.068;5.198;2022-11-12T01:09:53;5.60;99.90
16881;DHT22;8557;52.068;5.198;2022-11-12T01:12:21;5.60;99.90
16881;DHT22;8557;52.068;5.198;2022-11-12T01:14:47;5.60;99.90
16881;DHT22;8557;52.068;5.198;2022-11-12T01:17:14;5.70;99.90
16881;DHT22;8557;52.068;5.198;2022-11-12T01:19:41;5.80;99.90
16881;DHT22;8557;52.068;5.198;2022-11-12T01:22:08;5.80;99.90
16881;DHT22;8557;52.068;5.198;2022-11-12T01:24:36;5.80;99.90
16881;DHT22;8557;52.068;5.198;2022-11-12T01:27:02;5.80;99.90
16881;DHT22;8557;52.068;5.198;2022-11-12T01:29:31;5.80;99.90
16881;DHT22;8557;52.068;5.198;2022-11-12T01:31:57;5.70;99.90
16881;DHT22;8557;52.068;5.198;2022-11-12T01:34:25;5.70;99.90
16881;DHT22;8557;52.068;5.198;2022-11-12T01:36:52;5.60;99.90
16881;DHT22;8557;52.068;5.198;2022-11-12T01:39:18;5.70;99.90
16881;DHT22;8557;52.068;5.198;2022-11-12T01:41:45;5.70;99.90
16881;DHT22;8557;52.068;5.198;2022-11-12T01:44:15;5.70;99.90
16881;DHT22;8557;52.068;5.198;2022-11-12T01:46:57;5.70;99.90
16881;DHT22;8557;52.068;5.198;2022-11-12T01:49:28;5.60;99.90
16881;DHT22;8557;52.068;5.198;2022-11-12T01:52:04;5.60;99.90
16881;DHT22;8557;52.068;5.198;2022-11-12T01:54:32;5.60;99.90
16881;DHT22;8557;52.068;5.198;2022-11-12T01:56:59;5.60;99.90
16881;DHT22;8557;52.068;5.198;2022-11-12T01:59:28;5.70;99.90
16881;DHT22;8557;52.068;5.198;2022-11-12T02:01:58;5.60;99.90
16881;DHT22;8557;52.068;5.198;2022-11-12T02:04:25;5.50;99.90
16881;DHT22;8557;52.068;5.198;2022-11-12T02:06:54;5.50;99.90
16881;DHT22;8557;52.068;5.198;2022-11-12T02:09:21;5.40;99.90
16881;DHT22;8557;52.068;5.198;2022-11-12T02:11:48;5.40;99.90
16881;DHT22;8557;52.068;5.198;2022-11-12T02:14:15;5.30;99.90
16881;DHT22;8557;52.068;5.198;2022-11-12T02:16:42;5.40;99.90
16881;DHT22;8557;52.068;5.198;2022-11-12T02:19:14;5.30;99.90
16881;DHT22;8557;52.068;5.198;2022-11-12T02:21:43;5.30;99.90
16881;DHT22;8557;52.068;5.198;2022-11-12T02:24:31;5.30;99.90
16881;DHT22;8557;52.068;5.198;2022-11-12T02:26:58;5.30;99.90
16881;DHT22;8557;52.068;5.198;2022-11-12T02:29:25;5.40;99.90
16881;DHT22;8557;52.068;5.198;2022-11-12T02:31:52;5.40;99.90
16881;DHT22;8557;52.068;5.198;2022-11-12T02:34:19;5.50;99.90
16881;DHT22;8557;52.068;5.198;2022-11-12T02:36:47;5.50;99.90
16881;DHT22;8557;52.068;5.198;2022-11-12T02:39:13;5.50;99.90
16881;DHT22;8557;52.068;5.198;2022-11-12T02:41:40;5.60;99.90
16881;DHT22;8557;52.068;5.198;2022-11-12T02:44:07;5.60;99.90
16881;DHT22;8557;52.068;5.198;2022-11-12T02:46:34;5.60;99.90
16881;DHT22;8557;52.068;5.198;2022-11-12T02:49:00;5.70;99.90
16881;DHT22;8557;52.068;5.198;2022-11-12T02:51:27;5.80;99.90
16881;DHT22;8557;52.068;5.198;2022-11-12T02:53:55;5.70;99.90
16881;DHT22;8557;52.068;5.198;2022-11-12T02:56:22;5.70;99.90
16881;DHT22;8557;52.068;5.198;2022-11-12T02:58:49;5.80;99.90
16881;DHT22;8557;52.068;5.198;2022-11-12T03:01:15;5.80;99.90
16881;DHT22;8557;52.068;5.198;2022-11-12T03:03:42;5.70;99.90
16881;DHT22;8557;52.068;5.198;2022-11-12T03:06:09;5.70;99.90
16881;DHT22;8557;52.068;5.198;2022-11-12T03:08:36;5.70;99.90
16881;DHT22;8557;52.068;5.198;2022-11-12T03:11:07;5.60;99.90
16881;DHT22;8557;52.068;5.198;2022-11-12T03:13:35;5.70;99.90
16881;DHT22;8557;52.068;5.198;2022-11-12T03:16:02;5.70;99.90
16881;DHT22;8557;52.068;5.198;2022-11-12T03:18:29;5.70;99.90
16881;DHT22;8557;52.068;5.198;2022-11-12T03:20:55;5.60;99.90
16881;DHT22;8557;52.068;5.198;2022-11-12T03:23:22;5.60;99.90
16881;DHT22;8557;52.068;5.198;2022-11-12T03:25:49;5.60;99.90
16881;DHT22;8557;52.068;5.198;2022-11-12T03:28:17;5.60;99.90
16881;DHT22;8557;52.068;5.198;2022-11-12T03:30:44;5.50;99.90
16881;DHT22;8557;52.068;5.198;2022-11-12T03:33:13;5.50;99.90
16881;DHT22;8557;52.068;5.198;2022-11-12T03:35:40;5.40;99.90
16881;DHT22;8557;52.068;5.198;2022-11-12T03:38:07;5.40;99.90
16881;DHT22;8557;52.068;5.198;2022-11-12T03:40:34;5.40;99.90
16881;DHT22;8557;52.068;5.198;2022-11-12T03:43:01;5.40;99.90
16881;DHT22;8557;52.068;5.198;2022-11-12T03:45:29;5.50;99.90
16881;DHT22;8557;52.068;5.198;2022-11-12T03:47:56;5.50;99.90
16881;DHT22;8557;52.068;5.198;2022-11-12T03:50:25;5.60;99.90
16881;DHT22;8557;52.068;5.198;2022-11-12T03:52:53;5.70;99.90
16881;DHT22;8557;52.068;5.198;2022-11-12T03:55:21;5.70;99.90
16881;DHT22;8557;52.068;5.198;2022-11-12T03:57:49;5.70;99.90
16881;DHT22;8557;52.068;5.198;2022-11-12T04:00:17;5.80;99.90
16881;DHT22;8557;52.068;5.198;2022-11-12T04:02:45;5.80;99.90
16881;DHT22;8557;52.068;5.198;2022-11-12T04:05:13;5.90;99.90
16881;DHT22;8557;52.068;5.198;2022-11-12T04:08:05;5.80;99.90
16881;DHT22;8557;52.068;5.198;2022-11-12T04:10:50;5.80;99.90
16881;DHT22;8557;52.068;5.198;2022-11-12T04:13:17;5.80;99.90
16881;DHT22;8557;52.068;5.198;2022-11-12T04:15:57;5.70;99.90
16881;DHT22;8557;52.068;5.198;2022-11-12T04:18:44;5.50;99.90
16881;DHT22;8557;52.068;5.198;2022-11-12T04:21:32;5.50;99.90
16881;DHT22;8557;52.068;5.198;2022-11-12T04:24:21;5.40;99.90
16881;DHT22;8557;52.068;5.198;2022-11-12T04:27:07;5.40;99.90
16881;DHT22;8557;52.068;5.198;2022-11-12T04:29:34;5.30;99.90
16881;DHT22;8557;52.068;5.198;2022-11-12T04:32:19;5.20;99.90
16881;DHT22;8557;52.068;5.198;2022-11-12T04:34:47;5.10;99.90
16881;DHT22;8557;52.068;5.198;2022-11-12T04:37:13;5.20;99.90
16881;DHT22;8557;52.068;5.198;2022-11-12T04:39:40;5.30;99.90
16881;DHT22;8557;52.068;5.198;2022-11-12T04:42:07;5.40;99.90
16881;DHT22;8557;52.068;5.198;2022-11-12T04:44:52;5.30;99.90
16881;DHT22;8557;52.068;5.198;2022-11-12T04:47:26;5.20;99.90
16881;DHT22;8557;52.068;5.198;2022-11-12T04:49:55;5.30;99.90
16881;DHT22;8557;52.068;5.198;2022-11-12T04:52:22;5.40;99.90
16881;DHT22;8557;52.068;5.198;2022-11-12T04:54:48;5.40;99.90
16881;DHT22;8557;52.068;5.198;2022-11-12T04:57:15;5.50;99.90
16881;DHT22;8557;52.068;5.198;2022-11-12T04:59:42;5.50;99.90
16881;DHT22;8557;52.068;5.198;2022-11-12T05:02:09;5.50;99.90
16881;DHT22;8557;52.068;5.198;2022-11-12T05:04:35;5.40;99.90
16881;DHT22;8557;52.068;5.198;2022-11-12T05:07:03;5.40;99.90
16881;DHT22;8557;52.068;5.198;2022-11-12T05:09:30;5.40;99.90
16881;DHT22;8557;52.068;5.198;2022-11-12T05:11:57;5.50;99.90
16881;DHT22;8557;52.068;5.198;2022-11-12T05:14:24;5.50;99.90
16881;DHT22;8557;52.068;5.198;2022-11-12T05:16:51;5.50;99.90
16881;DHT22;8557;52.068;5.198;2022-11-12T05:19:17;5.50;99.90
16881;DHT22;8557;52.068;5.198;2022-11-12T05:21:44;5.40;99.90
16881;DHT22;8557;52.068;5.198;2022-11-12T05:24:31;5.40;99.90
16881;DHT22;8557;52.068;5.198;2022-11-12T05:26:57;5.40;99.90
16881;DHT22;8557;52.068;5.198;2022-11-12T05:29:24;5.30;99.90
16881;DHT22;8557;52.068;5.198;2022-11-12T05:31:51;5.40;99.90
16881;DHT22;8557;52.068;5.198;2022-11-12T05:34:17;5.40;99.90
16881;DHT22;8557;52.068;5.198;2022-11-12T05:36:44;5.30;99.90
16881;DHT22;8557;52.068;5.198;2022-11-12T05:39:11;5.30;99.90
16881;DHT22;8557;52.068;5.198;2022-11-12T05:41:39;5.30;99.90
16881;DHT22;8557;52.068;5.198;2022-11-12T05:44:06;5.30;99.90
16881;DHT22;8557;52.068;5.198;2022-11-12T05:46:33;5.10;99.90
16881;DHT22;8557;52.068;5.198;2022-11-12T05:48:59;5.10;99.90
16881;DHT22;8557;52.068;5.198;2022-11-12T05:51:26;5.10;99.90
16881;DHT22;8557;52.068;5.198;2022-11-12T05:53:53;5.20;99.90
16881;DHT22;8557;52.068;5.198;2022-11-12T05:56:20;5.30;99.90
16881;DHT22;8557;52.068;5.198;2022-11-12T05:58:48;5.30;99.90
16881;DHT22;8557;52.068;5.198;2022-11-12T06:01:15;5.20;99.90
16881;DHT22;8557;52.068;5.198;2022-11-12T06:03:41;5.20;99.90
16881;DHT22;8557;52.068;5.198;2022-11-12T06:06:08;5.20;99.90
16881;DHT22;8557;52.068;5.198;2022-11-12T06:08:35;5.20;99.90
16881;DHT22;8557;52.068;5.198;2022-11-12T06:11:02;5.10;99.90
16881;DHT22;8557;52.068;5.198;2022-11-12T06:13:28;5.00;99.90
16881;DHT22;8557;52.068;5.198;2022-11-12T06:15:57;5.00;99.90
16881;DHT22;8557;52.068;5.198;2022-11-12T06:18:24;5.00;99.90
16881;DHT22;8557;52.068;5.198;2022-11-12T06:20:51;5.10;99.90
16881;DHT22;8557;52.068;5.198;2022-11-12T06:23:31;5.10;99.90
16881;DHT22;8557;52.068;5.198;2022-11-12T06:25:58;5.20;99.90
16881;DHT22;8557;52.068;5.198;2022-11-12T06:28:25;5.20;99.90
16881;DHT22;8557;52.068;5.198;2022-11-12T06:30:52;5.10;99.90
16881;DHT22;8557;52.068;5.198;2022-11-12T06:33:20;5.10;99.90
16881;DHT22;8557;52.068;5.198;2022-11-12T06:35:47;5.10;99.90
16881;DHT22;8557;52.068;5.198;2022-11-12T06:38:21;5.10;99.90
16881;DHT22;8557;52.068;5.198;2022-11-12T06:40:48;5.10;99.90
16881;DHT22;8557;52.068;5.198;2022-11-12T06:43:15;5.10;99.90
16881;DHT22;8557;52.068;5.198;2022-11-12T06:45:42;5.20;99.90
16881;DHT22;8557;52.068;5.198;2022-11-12T06:48:09;5.20;99.90
16881;DHT22;8557;52.068;5.198;2022-11-12T06:50:37;5.20;99.90
16881;DHT22;8557;52.068;5.198;2022-11-12T06:53:03;5.20;99.90
16881;DHT22;8557;52.068;5.198;2022-11-12T06:55:30;5.20;99.90
16881;DHT22;8557;52.068;5.198;2022-11-12T06:57:57;5.20;99.90
16881;DHT22;8557;52.068;5.198;2022-11-12T07:00:24;5.20;99.90
16881;DHT22;8557;52.068;5.198;2022-11-12T07:02:50;5.10;99.90
16881;DHT22;8557;52.068;5.198;2022-11-12T07:05:17;5.00;99.90
16881;DHT22;8557;52.068;5.198;2022-11-12T07:07:45;5.10;99.90
16881;DHT22;8557;52.068;5.198;2022-11-12T07:10:12;5.20;99.90
16881;DHT22;8557;52.068;5.198;2022-11-12T07:12:39;5.30;99.90
16881;DHT22;8557;52.068;5.198;2022-11-12T07:15:06;5.20;99.90
16881;DHT22;8557;52.068;5.198;2022-11-12T07:17:33;5.20;99.90
16881;DHT22;8557;52.068;5.198;2022-11-12T07:19:59;5.20;99.90
16881;DHT22;8557;52.068;5.198;2022-11-12T07:22:26;5.20;99.90
16881;DHT22;8557;52.068;5.198;2022-11-12T07:24:54;5.20;99.90
16881;DHT22;8557;52.068;5.198;2022-11-12T07:27:21;5.20;99.90
16881;DHT22;8557;52.068;5.198;2022-11-12T07:29:48;5.20;99.90
16881;DHT22;8557;52.068;5.198;2022-11-12T07:32:14;5.30;99.90
16881;DHT22;8557;52.068;5.198;2022-11-12T07:34:41;5.40;99.90
16881;DHT22;8557;52.068;5.198;2022-11-12T07:37:08;5.40;99.90
16881;DHT22;8557;52.068;5.198;2022-11-12T07:39:35;5.40;99.90
16881;DHT22;8557;52.068;5.198;2022-11-12T07:42:03;5.40;99.90
16881;DHT22;8557;52.068;5.198;2022-11-12T07:44:30;5.50;99.90
16881;DHT22;8557;52.068;5.198;2022-11-12T07:46:56;5.60;99.90
16881;DHT22;8557;52.068;5.198;2022-11-12T07:49:23;5.60;99.90
16881;DHT22;8557;52.068;5.198;2022-11-12T07:51:50;5.70;99.90
16881;DHT22;8557;52.068;5.198;2022-11-12T07:54:17;5.70;99.90
16881;DHT22;8557;52.068;5.198;2022-11-12T07:56:43;5.70;99.90
16881;DHT22;8557;52.068;5.198;2022-11-12T07:59:11;5.70;99.90
16881;DHT22;8557;52.068;5.198;2022-11-12T08:01:39;5.80;99.90
16881;DHT22;8557;52.068;5.198;2022-11-12T08:04:08;5.90;99.90
16881;DHT22;8557;52.068;5.198;2022-11-12T08:06:36;6.00;99.90
16881;DHT22;8557;52.068;5.198;2022-11-12T08:09:04;6.10;99.90
16881;DHT22;8557;52.068;5.198;2022-11-12T08:11:32;6.20;99.90
16881;DHT22;8557;52.068;5.198;2022-11-12T08:13:59;6.20;99.90
16881;DHT22;8557;52.068;5.198;2022-11-12T08:16:27;6.30;99.90
16881;DHT22;8557;52.068;5.198;2022-11-12T08:18:54;6.40;99.90
16881;DHT22;8557;52.068;5.198;2022-11-12T08:21:21;6.50;99.90
16881;DHT22;8557;52.068;5.198;2022-11-12T08:23:47;6.60;99.90
16881;DHT22;8557;52.068;5.198;2022-11-12T08:26:16;6.70;99.90
16881;DHT22;8557;52.068;5.198;2022-11-12T08:28:44;6.70;99.90
16881;DHT22;8557;52.068;5.198;2022-11-12T08:31:12;6.80;99.90
16881;DHT22;8557;52.068;5.198;2022-11-12T08:33:41;6.90;99.90
16881;DHT22;8557;52.068;5.198;2022-11-12T08:36:09;7.10;99.90
16881;DHT22;8557;52.068;5.198;2022-11-12T08:38:36;7.20;99.90
16881;DHT22;8557;52.068;5.198;2022-11-12T08:41:05;7.20;99.90
16881;DHT22;8557;52.068;5.198;2022-11-12T08:43:32;7.30;99.90
16881;DHT22;8557;52.068;5.198;2022-11-12T08:46:01;7.40;99.90
16881;DHT22;8557;52.068;5.198;2022-11-12T08:48:29;7.40;99.90
16881;DHT22;8557;52.068;5.198;2022-11-12T08:51:00;7.50;99.90
16881;DHT22;8557;52.068;5.198;2022-11-12T08:53:27;7.60;99.90
16881;DHT22;8557;52.068;5.198;2022-11-12T08:55:54;7.70;99.90
16881;DHT22;8557;52.068;5.198;2022-11-12T08:58:22;7.80;99.90
16881;DHT22;8557;52.068;5.198;2022-11-12T09:00:49;7.90;99.90
16881;DHT22;8557;52.068;5.198;2022-11-12T09:03:17;8.10;99.90
16881;DHT22;8557;52.068;5.198;2022-11-12T09:05:45;8.10;99.90
16881;DHT22;8557;52.068;5.198;2022-11-12T09:08:15;8.20;99.90
16881;DHT22;8557;52.068;5.198;2022-11-12T09:10:42;8.20;99.90
16881;DHT22;8557;52.068;5.198;2022-11-12T09:13:09;8.30;99.90
16881;DHT22;8557;52.068;5.198;2022-11-12T09:15:36;8.40;99.90
16881;DHT22;8557;52.068;5.198;2022-11-12T09:18:05;8.40;99.90
16881;DHT22;8557;52.068;5.198;2022-11-12T09:20:32;8.50;99.90
16881;DHT22;8557;52.068;5.198;2022-11-12T09:23:00;8.60;99.90
16881;DHT22;8557;52.068;5.198;2022-11-12T09:25:28;8.70;99.90
16881;DHT22;8557;52.068;5.198;2022-11-12T09:27:55;8.80;99.90
16881;DHT22;8557;52.068;5.198;2022-11-12T09:30:22;8.90;99.90
16881;DHT22;8557;52.068;5.198;2022-11-12T09:32:55;8.90;99.90
16881;DHT22;8557;52.068;5.198;2022-11-12T09:35:22;9.00;99.90
16881;DHT22;8557;52.068;5.198;2022-11-12T09:37:48;9.10;99.90
16881;DHT22;8557;52.068;5.198;2022-11-12T09:40:18;9.10;99.90
16881;DHT22;8557;52.068;5.198;2022-11-12T09:42:50;9.20;99.90
16881;DHT22;8557;52.068;5.198;2022-11-12T09:45:21;9.30;99.90
16881;DHT22;8557;52.068;5.198;2022-11-12T09:47:52;9.40;99.90
16881;DHT22;8557;52.068;5.198;2022-11-12T09:50:24;9.50;99.90
16881;DHT22;8557;52.068;5.198;2022-11-12T09:52:58;9.50;99.90
16881;DHT22;8557;52.068;5.198;2022-11-12T09:55:30;9.60;99.90
16881;DHT22;8557;52.068;5.198;2022-11-12T09:57:59;9.70;99.90
16881;DHT22;8557;52.068;5.198;2022-11-12T10:00:26;9.80;99.90
16881;DHT22;8557;52.068;5.198;2022-11-12T10:03:00;9.90;99.90
16881;DHT22;8557;52.068;5.198;2022-11-12T10:05:32;10.10;99.90
16881;DHT22;8557;52.068;5.198;2022-11-12T10:08:22;10.20;99.90
16881;DHT22;8557;52.068;5.198;2022-11-12T10:10:55;10.40;99.90
16881;DHT22;8557;52.068;5.198;2022-11-12T10:13:37;10.50;99.90
16881;DHT22;8557;52.068;5.198;2022-11-12T10:16:21;10.60;99.90
16881;DHT22;8557;52.068;5.198;2022-11-12T10:19:31;10.70;99.90
16881;DHT22;8557;52.068;5.198;2022-11-12T10:22:10;10.80;99.90
16881;DHT22;8557;52.068;5.198;2022-11-12T10:24:43;11.00;99.90
16881;DHT22;8557;52.068;5.198;2022-11-12T10:27:14;11.10;99.90
16881;DHT22;8557;52.068;5.198;2022-11-12T10:29:48;11.20;99.90
16881;DHT22;8557;52.068;5.198;2022-11-12T10:32:17;11.40;99.90
16881;DHT22;8557;52.068;5.198;2022-11-12T10:34:44;11.40;99.90
16881;DHT22;8557;52.068;5.198;2022-11-12T10:37:14;11.60;99.90
16881;DHT22;8557;52.068;5.198;2022-11-12T10:39:43;11.60;99.90
16881;DHT22;8557;52.068;5.198;2022-11-12T10:42:14;11.70;99.90
16881;DHT22;8557;52.068;5.198;2022-11-12T10:44:43;11.80;99.90
16881;DHT22;8557;52.068;5.198;2022-11-12T10:47:18;11.90;99.90
16881;DHT22;8557;52.068;5.198;2022-11-12T10:50:04;12.00;99.90
16881;DHT22;8557;52.068;5.198;2022-11-12T10:52:31;12.10;99.90
16881;DHT22;8557;52.068;5.198;2022-11-12T10:55:05;11.80;99.90
16881;DHT22;8557;52.068;5.198;2022-11-12T11:13:08;13.30;72.50
16881;DHT22;8557;52.068;5.198;2022-11-12T11:15:37;13.20;93.90
16881;DHT22;8557;52.068;5.198;2022-11-12T11:18:07;13.30;85.90
16881;DHT22;8557;52.068;5.198;2022-11-12T11:20:43;13.40;74.20
16881;DHT22;8557;52.068;5.198;2022-11-12T11:23:16;13.50;40.10
16881;DHT22;8557;52.068;5.198;2022-11-12T11:25:47;13.60;12.60
16881;DHT22;8557;52.068;5.198;2022-11-12T11:28:22;13.70;1.00
16881;DHT22;8557;52.068;5.198;2022-11-12T11:30:58;13.90;1.00
16881;DHT22;8557;52.068;5.198;2022-11-12T11:33:35;14.10;1.00
16881;DHT22;8557;52.068;5.198;2022-11-12T11:36:14;14.20;1.00
16881;DHT22;8557;52.068;5.198;2022-11-12T11:38:51;14.40;1.00
16881;DHT22;8557;52.068;5.198;2022-11-12T11:41:43;14.60;1.00
16881;DHT22;8557;52.068;5.198;2022-11-12T11:44:20;14.70;1.00
16881;DHT22;8557;52.068;5.198;2022-11-12T11:46:57;14.90;1.00
16881;DHT22;8557;52.068;5.198;2022-11-12T11:50:05;15.00;1.00
16881;DHT22;8557;52.068;5.198;2022-11-12T11:52:44;15.20;1.00
16881;DHT22;8557;52.068;5.198;2022-11-12T11:55:29;15.30;1.00
16881;DHT22;8557;52.068;5.198;2022-11-12T11:58:05;15.50;99.90
16881;DHT22;8557;52.068;5.198;2022-11-12T12:00:44;15.70;99.90
16881;DHT22;8557;52.068;5.198;2022-11-12T12:03:19;15.80;99.90
16881;DHT22;8557;52.068;5.198;2022-11-12T12:06:07;16.00;99.90
16881;DHT22;8557;52.068;5.198;2022-11-12T12:08:58;16.10;99.90
16881;DHT22;8557;52.068;5.198;2022-11-12T12:11:33;16.10;99.90
16881;DHT22;8557;52.068;5.198;2022-11-12T12:14:12;16.20;99.90
16881;DHT22;8557;52.068;5.198;2022-11-12T12:16:49;16.40;99.90
16881;DHT22;8557;52.068;5.198;2022-11-12T12:19:26;16.70;99.90
16881;DHT22;8557;52.068;5.198;2022-11-12T12:21:59;16.90;98.40
16881;DHT22;8557;52.068;5.198;2022-11-12T12:24:29;17.10;40.00
16881;DHT22;8557;52.068;5.198;2022-11-12T12:27:01;17.30;1.00
16881;DHT22;8557;52.068;5.198;2022-11-12T12:29:33;17.60;1.00
16881;DHT22;8557;52.068;5.198;2022-11-12T12:32:09;17.80;1.00
16881;DHT22;8557;52.068;5.198;2022-11-12T12:34:41;17.80;1.00
16881;DHT22;8557;52.068;5.198;2022-11-12T12:37:16;17.80;1.00
16881;DHT22;8557;52.068;5.198;2022-11-12T12:39:52;17.60;1.00
16881;DHT22;8557;52.068;5.198;2022-11-12T12:42:25;17.40;1.00
16881;DHT22;8557;52.068;5.198;2022-11-12T12:44:58;17.10;1.00
16881;DHT22;8557;52.068;5.198;2022-11-12T12:47:28;16.70;1.00
16881;DHT22;8557;52.068;5.198;2022-11-12T12:52:28;16.20;1.00
16881;DHT22;8557;52.068;5.198;2022-11-12T12:54:56;16.10;7.20
16881;DHT22;8557;52.068;5.198;2022-11-12T12:57:29;15.90;64.50
16881;DHT22;8557;52.068;5.198;2022-11-12T13:00:28;15.80;99.90
16881;DHT22;8557;52.068;5.198;2022-11-12T13:02:57;15.60;99.90
16881;DHT22;8557;52.068;5.198;2022-11-12T13:05:29;15.60;99.90
16881;DHT22;8557;52.068;5.198;2022-11-12T13:08:01;15.50;99.90
16881;DHT22;8557;52.068;5.198;2022-11-12T13:10:47;15.50;1.00
16881;DHT22;8557;52.068;5.198;2022-11-12T13:13:29;15.60;1.00
16881;DHT22;8557;52.068;5.198;2022-11-12T13:15:58;15.60;1.00
16881;DHT22;8557;52.068;5.198;2022-11-12T13:18:56;15.50;1.00
16881;DHT22;8557;52.068;5.198;2022-11-12T13:21:23;15.50;1.00
16881;DHT22;8557;52.068;5.198;2022-11-12T13:23:52;15.60;1.00
16881;DHT22;8557;52.068;5.198;2022-11-12T13:26:59;15.60;1.00
16881;DHT22;8557;52.068;5.198;2022-11-12T13:29:42;15.70;1.00
16881;DHT22;8557;52.068;5.198;2022-11-12T13:32:33;15.70;1.00
16881;DHT22;8557;52.068;5.198;2022-11-12T13:35:32;16.00;99.90
16881;DHT22;8557;52.068;5.198;2022-11-12T13:38:02;16.90;99.90
16881;DHT22;8557;52.068;5.198;2022-11-12T13:40:43;17.20;85.70
16881;DHT22;8557;52.068;5.198;2022-11-12T13:43:16;16.90;19.40
16881;DHT22;8557;52.068;5.198;2022-11-12T13:45:47;17.00;6.10
16881;DHT22;8557;52.068;5.198;2022-11-12T13:48:17;17.20;1.00
16881;DHT22;8557;52.068;5.198;2022-11-12T13:50:51;17.20;1.00
16881;DHT22;8557;52.068;5.198;2022-11-12T13:53:22;17.40;1.00
16881;DHT22;8557;52.068;5.198;2022-11-12T13:55:52;17.50;1.00
16881;DHT22;8557;52.068;5.198;2022-11-12T13:58:25;17.50;1.00
16881;DHT22;8557;52.068;5.198;2022-11-12T14:00:54;17.50;1.00
16881;DHT22;8557;52.068;5.198;2022-11-12T14:03:24;17.00;1.00
16881;DHT22;8557;52.068;5.198;2022-11-12T14:05:52;16.50;1.00
16881;DHT22;8557;52.068;5.198;2022-11-12T14:08:28;16.20;1.00
16881;DHT22;8557;52.068;5.198;2022-11-12T14:13:58;15.80;1.00
16881;DHT22;8557;52.068;5.198;2022-11-12T14:16:37;15.70;89.20
16881;DHT22;8557;52.068;5.198;2022-11-12T14:19:42;15.50;99.90
16881;DHT22;8557;52.068;5.198;2022-11-12T14:22:14;15.40;99.90
16881;DHT22;8557;52.068;5.198;2022-11-12T14:24:42;15.30;1.00
16881;DHT22;8557;52.068;5.198;2022-11-12T14:27:33;15.20;1.00
16881;DHT22;8557;52.068;5.198;2022-11-12T14:30:11;15.00;1.00
16881;DHT22;8557;52.068;5.198;2022-11-12T14:32:39;14.90;1.00
16881;DHT22;8557;52.068;5.198;2022-11-12T14:35:30;14.80;1.00
16881;DHT22;8557;52.068;5.198;2022-11-12T14:38:03;14.70;1.00
16881;DHT22;8557;52.068;5.198;2022-11-12T14:40:32;14.60;1.00
16881;DHT22;8557;52.068;5.198;2022-11-12T14:43:03;14.50;6.90
16881;DHT22;8557;52.068;5.198;2022-11-12T14:45:30;14.50;7.00
16881;DHT22;8557;52.068;5.198;2022-11-12T14:47:58;14.40;4.30
16881;DHT22;8557;52.068;5.198;2022-11-12T14:50:29;14.40;1.00
16881;DHT22;8557;52.068;5.198;2022-11-12T14:52:59;14.40;1.00
16881;DHT22;8557;52.068;5.198;2022-11-12T14:55:31;14.50;1.00
16881;DHT22;8557;52.068;5.198;2022-11-12T14:57:59;14.50;1.00
16881;DHT22;8557;52.068;5.198;2022-11-12T15:00:40;14.60;1.00
16881;DHT22;8557;52.068;5.198;2022-11-12T15:03:12;14.40;1.00
16881;DHT22;8557;52.068;5.198;2022-11-12T15:05:55;14.30;1.00
16881;DHT22;8557;52.068;5.198;2022-11-12T15:08:30;14.20;1.00
16881;DHT22;8557;52.068;5.198;2022-11-12T15:11:17;14.10;1.00
16881;DHT22;8557;52.068;5.198;2022-11-12T15:13:45;14.00;1.00
16881;DHT22;8557;52.068;5.198;2022-11-12T15:16:18;14.00;1.00
16881;DHT22;8557;52.068;5.198;2022-11-12T15:19:06;13.90;1.00
16881;DHT22;8557;52.068;5.198;2022-11-12T15:21:34;13.80;17.50
16881;DHT22;8557;52.068;5.198;2022-11-12T15:24:06;13.70;49.20
16881;DHT22;8557;52.068;5.198;2022-11-12T15:26:43;13.60;69.40
16881;DHT22;8557;52.068;5.198;2022-11-12T15:29:28;13.60;79.90
16881;DHT22;8557;52.068;5.198;2022-11-12T15:31:58;13.50;90.50
16881;DHT22;8557;52.068;5.198;2022-11-12T15:34:31;13.40;96.60
16881;DHT22;8557;52.068;5.198;2022-11-12T15:37:02;13.40;99.90
16881;DHT22;8557;52.068;5.198;2022-11-12T15:39:31;13.30;99.90
16881;DHT22;8557;52.068;5.198;2022-11-12T15:42:00;13.20;99.90
16881;DHT22;8557;52.068;5.198;2022-11-12T15:44:31;13.10;99.90
16881;DHT22;8557;52.068;5.198;2022-11-12T15:47:01;13.10;99.90
16881;DHT22;8557;52.068;5.198;2022-11-12T15:49:28;13.00;99.90
16881;DHT22;8557;52.068;5.198;2022-11-12T15:51:55;12.90;99.90
16881;DHT22;8557;52.068;5.198;2022-11-12T15:54:21;12.80;99.90
16881;DHT22;8557;52.068;5.198;2022-11-12T15:56:48;12.70;99.90
16881;DHT22;8557;52.068;5.198;2022-11-12T15:59:16;12.70;99.90
16881;DHT22;8557;52.068;5.198;2022-11-12T16:01:44;12.60;99.90
16881;DHT22;8557;52.068;5.198;2022-11-12T16:04:12;12.50;99.90
16881;DHT22;8557;52.068;5.198;2022-11-12T16:06:39;12.50;99.90
16881;DHT22;8557;52.068;5.198;2022-11-12T16:09:06;12.40;99.90
16881;DHT22;8557;52.068;5.198;2022-11-12T16:11:33;12.30;99.90
16881;DHT22;8557;52.068;5.198;2022-11-12T16:14:04;12.30;99.90
16881;DHT22;8557;52.068;5.198;2022-11-12T16:16:32;12.20;99.90
16881;DHT22;8557;52.068;5.198;2022-11-12T16:19:00;12.10;99.90
16881;DHT22;8557;52.068;5.198;2022-11-12T16:21:28;12.00;99.90
16881;DHT22;8557;52.068;5.198;2022-11-12T16:23:54;11.90;99.90
16881;DHT22;8557;52.068;5.198;2022-11-12T16:26:26;11.80;99.90
16881;DHT22;8557;52.068;5.198;2022-11-12T16:28:53;11.80;99.90
16881;DHT22;8557;52.068;5.198;2022-11-12T16:31:22;11.70;99.90
16881;DHT22;8557;52.068;5.198;2022-11-12T16:33:49;11.60;99.90
16881;DHT22;8557;52.068;5.198;2022-11-12T16:36:16;11.50;99.90
16881;DHT22;8557;52.068;5.198;2022-11-12T16:38:45;11.40;99.90
16881;DHT22;8557;52.068;5.198;2022-11-12T16:41:13;11.30;99.90